Time;durP1;ratioP1;P1;durP2;ratioP2;P2;SDS_P1;SDS_P2;PMS_P1;PMS_P2;Temp;Humidity;BMP_temperature;BMP_pressure;BME280_temperature;BME280_humidity;BME280_pressure;Samples;Min_cycle;Max_cycle;Signal;HPM_P1;HPM_P2
2021/12/19 00:09:57;;;;;;;42.75;17.55;;;;;;;2.67;100.00;102102.53;5073522;28;20028;-71
2021/12/19 00:12:23;;;;;;;35.20;17.63;;;;;;;2.68;100.00;102099.59;5095087;28;20029;-71
2021/12/19 00:14:48;;;;;;;36.85;16.35;;;;;;;2.70;100.00;102102.13;5078780;28;20430;-71
2021/12/19 00:17:13;;;;;;;35.67;16.85;;;;;;;2.70;100.00;102096.63;5075072;28;20435;-71
2021/12/19 00:19:39;;;;;;;38.50;17.73;;;;;;;2.69;100.00;102095.78;5096330;28;20024;-71
2021/12/19 00:22:04;;;;;;;37.35;16.67;;;;;;;2.69;100.00;102103.19;5108936;28;20039;-71
2021/12/19 00:24:30;;;;;;;38.85;17.35;;;;;;;2.68;100.00;102088.63;5083330;28;20380;-71
2021/12/19 00:26:55;;;;;;;38.55;17.92;;;;;;;2.68;100.00;102088.63;5080425;28;20033;-71
2021/12/19 00:29:21;;;;;;;39.45;17.73;;;;;;;2.68;100.00;102082.28;5051306;28;20094;-71
2021/12/19 00:31:48;;;;;;;42.30;17.67;;;;;;;2.64;100.00;102078.25;5076200;28;20103;-71
2021/12/19 00:34:15;;;;;;;39.85;17.52;;;;;;;2.62;100.00;102078.47;5065438;28;20109;-71
2021/12/19 00:36:41;;;;;;;37.95;17.10;;;;;;;2.62;100.00;102077.63;5062163;28;20093;-71
2021/12/19 00:39:06;;;;;;;40.10;18.13;;;;;;;2.60;100.00;102080.56;5063278;28;20024;-71
2021/12/19 00:41:32;;;;;;;42.05;17.60;;;;;;;2.56;100.00;102079.25;5097143;28;20035;-71
2021/12/19 00:44:08;;;;;;;40.63;17.60;;;;;;;2.55;100.00;102074.84;5066103;28;20118;-71
2021/12/19 00:46:42;;;;;;;43.35;17.40;;;;;;;2.52;100.00;102075.25;5095130;28;20185;-71
2021/12/19 00:49:08;;;;;;;42.60;17.75;;;;;;;2.52;100.00;102077.16;5065698;28;20028;-71
2021/12/19 00:51:33;;;;;;;40.83;18.52;;;;;;;2.48;100.00;102076.72;5081167;28;20058;-71
2021/12/19 00:53:59;;;;;;;40.85;16.98;;;;;;;2.44;100.00;102068.00;5061659;28;20016;-71
2021/12/19 00:56:25;;;;;;;41.67;17.75;;;;;;;2.43;100.00;102060.84;5067061;28;20047;-71
2021/12/19 00:58:51;;;;;;;40.35;18.30;;;;;;;2.42;100.00;102059.16;5065289;28;20030;-71
2021/12/19 01:01:16;;;;;;;39.08;17.90;;;;;;;2.40;100.00;102060.41;5043847;28;20040;-71
2021/12/19 01:03:44;;;;;;;40.03;17.88;;;;;;;2.37;100.00;102053.44;5051097;28;20028;-71
2021/12/19 01:06:09;;;;;;;36.10;17.40;;;;;;;2.37;100.00;102055.34;5081948;28;20028;-71
2021/12/19 01:08:35;;;;;;;43.70;18.48;;;;;;;2.38;100.00;102062.50;5062696;28;20032;-71
2021/12/19 01:11:00;;;;;;;30.42;14.95;;;;;;;2.37;100.00;102056.19;5062838;28;20039;-71
2021/12/19 01:13:26;;;;;;;36.80;16.50;;;;;;;2.34;100.00;102053.84;5075611;28;20024;-71
2021/12/19 01:15:53;;;;;;;35.50;15.90;;;;;;;2.34;100.00;102059.31;5095966;28;20515;-71
2021/12/19 01:18:18;;;;;;;33.30;15.23;;;;;;;2.34;100.00;102067.56;5077715;28;20034;-71
2021/12/19 01:20:44;;;;;;;30.58;14.43;;;;;;;2.32;100.00;102064.16;5079052;28;20032;-71
2021/12/19 01:23:10;;;;;;;33.45;15.30;;;;;;;2.32;100.00;102064.16;5069400;28;20028;-71
2021/12/19 01:25:35;;;;;;;34.45;15.07;;;;;;;2.30;100.00;102058.03;5066229;28;20510;-71
2021/12/19 01:28:01;;;;;;;32.45;15.35;;;;;;;2.31;100.00;102059.69;5063122;28;20032;-71
2021/12/19 01:30:26;;;;;;;35.20;15.15;;;;;;;2.27;100.00;102055.69;5082237;28;20116;-71
2021/12/19 01:32:52;;;;;;;32.90;15.80;;;;;;;2.27;100.00;102061.16;5075175;28;20039;-72
2021/12/19 01:35:18;;;;;;;29.15;14.40;;;;;;;2.25;100.00;102063.25;5061467;28;20063;-72
2021/12/19 01:37:44;;;;;;;31.00;13.90;;;;;;;2.27;100.00;102057.59;5078220;28;20036;-71
2021/12/19 01:40:10;;;;;;;31.08;14.80;;;;;;;2.26;100.00;102061.34;5046696;28;20514;-71
2021/12/19 01:42:39;;;;;;;31.92;14.48;;;;;;;2.22;100.00;102050.78;5060532;28;20052;-71
2021/12/19 01:45:06;;;;;;;32.13;14.77;;;;;;;2.22;100.00;102056.28;5094677;28;20392;-71
2021/12/19 01:47:32;;;;;;;30.85;14.10;;;;;;;2.21;100.00;102053.75;5079927;28;20043;-71
2021/12/19 01:49:58;;;;;;;31.33;14.55;;;;;;;2.22;100.00;102058.19;5050128;28;20020;-71
2021/12/19 01:52:24;;;;;;;30.75;14.07;;;;;;;2.19;100.00;102059.44;5046602;28;20036;-71
2021/12/19 01:54:50;;;;;;;29.75;13.95;;;;;;;2.19;100.00;102048.47;5064763;28;20038;-71
2021/12/19 01:57:15;;;;;;;31.88;14.48;;;;;;;2.20;100.00;102054.78;5063573;28;20056;-71
2021/12/19 01:59:41;;;;;;;32.15;14.30;;;;;;;2.16;100.00;102048.88;5057061;28;20090;-71
2021/12/19 02:02:06;;;;;;;33.35;15.38;;;;;;;2.14;100.00;102055.59;5086525;28;20031;-72
2021/12/19 02:04:33;;;;;;;33.67;15.00;;;;;;;2.10;100.00;102051.56;5062604;28;20040;-71
2021/12/19 02:06:58;;;;;;;35.28;15.13;;;;;;;2.07;100.00;102057.47;5078501;28;20047;-71
2021/12/19 02:09:25;;;;;;;28.73;13.93;;;;;;;2.06;100.00;102051.09;5081948;28;20427;-71
2021/12/19 02:11:51;;;;;;;32.85;13.85;;;;;;;2.02;100.00;102049.81;5079762;28;20032;-71
2021/12/19 02:14:16;;;;;;;29.80;14.43;;;;;;;2.02;100.00;102049.81;5093641;28;20508;-71
2021/12/19 02:16:42;;;;;;;28.25;13.98;;;;;;;2.00;100.00;102044.53;5063241;28;20028;-71
2021/12/19 02:19:08;;;;;;;32.33;15.40;;;;;;;1.98;100.00;102041.16;5063684;28;20030;-71
2021/12/19 02:21:33;;;;;;;34.15;15.38;;;;;;;1.97;100.00;102055.06;5059239;28;20024;-71
2021/12/19 02:24:01;;;;;;;33.45;15.75;;;;;;;1.95;100.00;102043.44;5063003;28;20491;-71
2021/12/19 02:26:26;;;;;;;32.33;15.45;;;;;;;1.93;100.00;102040.06;5062811;28;20035;-71
2021/12/19 02:28:52;;;;;;;31.20;14.18;;;;;;;1.91;100.00;102036.69;5076980;28;20024;-72
2021/12/19 02:31:18;;;;;;;30.25;14.60;;;;;;;1.85;100.00;102038.31;5088407;28;20036;-71
2021/12/19 02:33:56;;;;;;;31.30;14.45;;;;;;;1.86;100.00;102039.16;5088182;28;20039;-71
2021/12/19 02:36:37;;;;;;;31.98;14.60;;;;;;;1.86;100.00;102034.53;5066362;28;20087;-71
2021/12/19 02:50:07;;;;;;;27.13;12.77;;;;;;;1.69;100.00;102044.91;5081589;28;20125;-71
2021/12/19 02:52:33;;;;;;;30.23;13.65;;;;;;;1.64;100.00;102041.94;5075514;28;20103;-71
2021/12/19 02:54:58;;;;;;;29.17;13.43;;;;;;;1.58;100.00;102034.50;5075505;28;20063;-71
2021/12/19 02:57:25;;;;;;;28.02;13.10;;;;;;;1.60;100.00;102042.53;5086701;28;20032;-71
2021/12/19 02:59:50;;;;;;;27.90;13.43;;;;;;;1.56;100.00;102040.19;5078058;28;20648;-71
2021/12/19 03:02:17;;;;;;;29.08;13.07;;;;;;;1.55;100.00;102043.13;5061023;28;20044;-71
2021/12/19 03:04:53;;;;;;;29.92;13.65;;;;;;;1.53;100.00;102036.97;5076924;28;20036;-71
2021/12/19 03:07:19;;;;;;;28.90;13.73;;;;;;;1.50;100.00;102040.13;5080244;28;20561;-71
2021/12/19 03:20:23;;;;;;;29.45;13.20;;;;;;;1.44;100.00;102028.06;5094495;28;20031;-71
2021/12/19 03:22:48;;;;;;;28.25;14.38;;;;;;;1.40;100.00;102021.31;5067919;28;20093;-71
2021/12/19 03:25:14;;;;;;;32.70;14.30;;;;;;;1.42;100.00;102023.81;5066478;28;20818;-71
2021/12/19 03:27:39;;;;;;;29.98;14.90;;;;;;;1.34;100.00;102020.19;5080840;28;20028;-71
2021/12/19 03:30:05;;;;;;;30.67;13.52;;;;;;;1.37;100.00;102018.13;5064699;28;20059;-71
2021/12/19 03:32:31;;;;;;;31.73;14.25;;;;;;;1.34;100.00;102016.63;5063974;28;20107;-71
2021/12/19 03:34:57;;;;;;;32.35;14.25;;;;;;;1.31;100.00;102015.13;5085116;28;20070;-71
2021/12/19 03:37:22;;;;;;;32.10;14.60;;;;;;;1.30;100.00;102007.09;5096213;28;20031;-71
2021/12/19 03:40:35;;;;;;;30.60;14.55;;;;;;;1.30;100.00;102007.94;5095383;28;20074;-71
2021/12/19 03:42:44;;;;;;;30.92;14.05;;;;;;;1.26;100.00;102005.78;5093804;28;20078;-71
2021/12/19 03:45:12;;;;;;;31.17;14.68;;;;;;;1.28;100.00;102010.03;5072111;28;20106;-71
2021/12/19 03:47:38;;;;;;;28.70;14.18;;;;;;;1.26;100.00;102008.53;5072567;28;20031;-71
2021/12/19 03:50:04;;;;;;;35.17;15.13;;;;;;;1.26;100.00;102005.78;5066853;28;20124;-71
2021/12/19 03:52:30;;;;;;;32.05;14.80;;;;;;;1.24;100.00;102010.63;5063170;28;20373;-71
2021/12/19 03:54:56;;;;;;;29.73;14.57;;;;;;;1.21;100.00;102011.84;5079328;28;20046;-71
2021/12/19 03:57:22;;;;;;;33.65;15.10;;;;;;;1.20;100.00;102015.63;5076305;28;20575;-71
2021/12/19 03:59:49;;;;;;;31.83;13.50;;;;;;;1.18;100.00;102008.66;5092105;28;20035;-71
2021/12/19 04:02:23;;;;;;;36.63;14.98;;;;;;;1.16;100.00;101995.16;5057262;28;20056;-71
2021/12/19 04:04:49;;;;;;;33.28;14.30;;;;;;;1.16;100.00;102000.63;5074134;28;20510;-71
2021/12/19 04:07:14;;;;;;;31.50;14.77;;;;;;;1.11;100.00;101998.50;5068772;28;20032;-71
2021/12/19 04:09:40;;;;;;;29.80;14.48;;;;;;;1.09;100.00;101995.09;5050766;28;20707;-71
2021/12/19 04:12:06;;;;;;;34.50;14.73;;;;;;;1.07;100.00;101991.72;5096059;28;20047;-71
2021/12/19 04:14:31;;;;;;;32.22;13.82;;;;;;;1.07;100.00;101996.34;5067213;28;20468;-71
2021/12/19 04:16:56;;;;;;;32.00;14.57;;;;;;;1.05;100.00;101991.06;5079867;28;20051;-71
2021/12/19 04:19:22;;;;;;;30.23;13.77;;;;;;;1.04;100.00;101992.09;5084551;28;20628;-71
2021/12/19 04:21:48;;;;;;;29.67;13.88;;;;;;;1.03;100.00;101989.53;5080842;28;20040;-71
2021/12/19 04:24:13;;;;;;;35.47;15.20;;;;;;;1.00;100.00;101992.69;5068943;28;20032;-71
2021/12/19 04:26:38;;;;;;;32.25;14.20;;;;;;;0.98;100.00;101992.88;5095340;28;20028;-71
2021/12/19 04:29:04;;;;;;;27.77;13.95;;;;;;;0.96;100.00;101985.91;5061779;28;20020;-71
2021/12/19 04:31:29;;;;;;;33.38;15.02;;;;;;;0.91;100.00;101975.53;5065007;28;20394;-71
2021/12/19 04:33:56;;;;;;;29.38;13.98;;;;;;;0.93;100.00;101978.94;5048593;28;20051;-71
2021/12/19 04:36:27;;;;;;;34.50;15.80;;;;;;;0.82;100.00;101987.66;5034471;28;20115;-71
2021/12/19 04:57:38;;;;;;;39.30;16.23;;;;;;;0.74;100.00;101987.78;5065722;28;20032;-71
2021/12/19 05:00:10;;;;;;;38.17;16.52;;;;;;;0.75;100.00;101982.09;5051520;28;20066;-71
2021/12/19 05:16:16;;;;;;;49.92;18.98;;;;;;;0.78;100.00;101984.47;5063190;28;20022;-71
2021/12/19 05:18:44;;;;;;;52.65;19.15;;;;;;;0.84;100.00;101980.13;5079861;28;20039;-71
2021/12/19 05:21:18;;;;;;;53.13;20.00;;;;;;;0.89;100.00;101988.56;5039042;28;20384;-71
2021/12/19 05:26:12;;;;;;;65.75;23.83;;;;;;;1.03;100.00;101997.75;5062836;28;20390;-71
2021/12/19 05:28:37;;;;;;;57.72;20.75;;;;;;;1.06;100.00;101994.66;5046475;28;20081;-71
2021/12/19 05:31:03;;;;;;;58.10;22.58;;;;;;;1.17;100.00;101990.53;5053857;28;20040;-71
2021/12/19 05:33:28;;;;;;;58.60;22.08;;;;;;;1.21;100.00;101986.38;5052989;28;20040;-71
2021/12/19 05:46:24;;;;;;;62.88;19.55;;;;;;;1.50;100.00;101997.16;5065833;28;20032;-72
2021/12/19 05:48:50;;;;;;;61.03;21.75;;;;;;;1.55;100.00;101988.34;5064031;28;20035;-71
2021/12/19 05:51:15;;;;;;;64.55;21.17;;;;;;;1.60;100.00;101985.03;5058219;28;20119;-71
2021/12/19 05:53:41;;;;;;;62.15;22.25;;;;;;;1.61;100.00;101983.97;5029461;28;20032;-71
2021/12/19 05:56:06;;;;;;;58.80;20.88;;;;;;;1.67;100.00;101985.91;5046788;28;20055;-71
2021/12/19 05:58:32;;;;;;;53.95;20.00;;;;;;;1.68;100.00;101985.72;5051695;28;20033;-71
2021/12/19 06:00:57;;;;;;;54.00;23.10;;;;;;;1.71;100.00;101981.75;5039924;28;20412;-71
2021/12/19 06:03:23;;;;;;;53.92;20.98;;;;;;;1.75;100.00;101972.91;5044001;28;20032;-71
2021/12/19 06:05:48;;;;;;;47.92;18.80;;;;;;;1.83;100.00;101982.88;5044479;28;20476;-71
2021/12/19 06:08:14;;;;;;;52.70;19.92;;;;;;;1.86;100.00;101973.41;5047446;28;20030;-71
2021/12/19 06:10:39;;;;;;;51.13;18.17;;;;;;;1.90;100.00;101981.03;5056104;28;20082;-71
2021/12/19 06:13:05;;;;;;;46.70;18.92;;;;;;;1.92;100.00;101965.25;5047876;28;20028;-71
2021/12/19 06:15:30;;;;;;;49.67;18.67;;;;;;;1.97;100.00;101968.19;5048644;28;20391;-71
2021/12/19 06:17:56;;;;;;;54.88;19.48;;;;;;;2.05;100.00;101956.25;5062906;28;20037;-71
2021/12/19 06:20:24;;;;;;;51.35;19.15;;;;;;;2.10;100.00;101959.22;5065235;28;20036;-71
2021/12/19 06:22:50;;;;;;;51.03;18.67;;;;;;;2.12;100.00;101957.13;5048329;28;20480;-71
2021/12/19 06:25:15;;;;;;;60.20;20.48;;;;;;;2.21;100.00;101968.78;5060245;28;20143;-71
2021/12/19 06:27:41;;;;;;;53.92;19.13;;;;;;;2.24;100.00;101966.47;5052472;28;20040;-71
2021/12/19 06:30:07;;;;;;;62.83;21.73;;;;;;;2.31;100.00;101973.88;5044080;28;20038;-71
2021/12/19 06:32:32;;;;;;;58.30;20.88;;;;;;;2.36;100.00;101974.09;5079991;28;20480;-71
2021/12/19 06:34:59;;;;;;;51.08;19.52;;;;;;;2.40;100.00;101986.38;5077987;28;20044;-71
2021/12/19 06:37:25;;;;;;;58.05;20.55;;;;;;;2.45;100.00;101972.88;5046739;28;20032;-71
2021/12/19 06:39:51;;;;;;;61.97;21.08;;;;;;;2.47;100.00;101982.59;5056751;28;20038;-71
2021/12/19 06:42:16;;;;;;;56.47;20.40;;;;;;;2.50;100.00;101970.38;5060841;28;20027;-71
2021/12/19 06:44:42;;;;;;;58.72;20.27;;;;;;;2.56;100.00;101974.19;5045665;28;20058;-71
2021/12/19 06:47:07;;;;;;;61.67;21.27;;;;;;;2.58;100.00;101969.34;5071031;28;20028;-71
2021/12/19 06:49:33;;;;;;;59.38;20.63;;;;;;;2.60;100.00;101965.34;5080172;28;20028;-71
2021/12/19 06:51:58;;;;;;;58.60;19.52;;;;;;;2.65;100.00;101970.25;5084390;28;20020;-71
2021/12/19 06:54:23;;;;;;;48.67;18.80;;;;;;;2.62;100.00;101976.13;5078572;28;20036;-71
2021/12/19 06:56:49;;;;;;;54.65;19.52;;;;;;;2.72;100.00;101968.34;5077490;28;20028;-71
2021/12/19 06:59:14;;;;;;;55.90;19.48;;;;;;;2.77;100.00;101974.06;5087226;28;20044;-71
2021/12/19 07:01:40;;;;;;;56.72;18.25;;;;;;;2.80;100.00;101976.38;5066730;28;20031;-71
2021/12/19 07:04:06;;;;;;;57.92;20.08;;;;;;;2.80;100.00;101975.56;5064012;28;20495;-71
2021/12/19 07:06:31;;;;;;;58.38;20.35;;;;;;;2.80;100.00;101970.91;5063556;28;20107;-71
2021/12/19 07:08:57;;;;;;;61.95;20.55;;;;;;;2.82;100.00;101973.44;5077204;28;20058;-71
2021/12/19 07:11:22;;;;;;;52.42;19.17;;;;;;;2.90;100.00;101970.53;5066504;28;20035;-71
2021/12/19 07:13:47;;;;;;;58.35;20.77;;;;;;;2.90;100.00;101974.09;5089796;28;20020;-71
2021/12/19 07:16:14;;;;;;;63.10;21.10;;;;;;;2.91;100.00;101973.03;5063498;28;20056;-71
2021/12/19 07:18:39;;;;;;;47.50;18.73;;;;;;;2.91;100.00;101986.75;5061701;28;20399;-71
2021/12/19 07:21:05;;;;;;;60.92;20.23;;;;;;;2.97;100.00;101978.75;5059084;28;20032;-71
2021/12/19 07:23:31;;;;;;;49.70;18.75;;;;;;;2.97;100.00;101979.59;5074745;28;20092;-71
2021/12/19 07:25:56;;;;;;;50.85;19.05;;;;;;;2.99;100.00;101979.41;5052257;28;20039;-71
2021/12/19 07:28:22;;;;;;;52.45;18.35;;;;;;;3.03;100.00;101976.00;5075635;28;20035;-71
2021/12/19 07:30:48;;;;;;;56.05;19.23;;;;;;;3.04;100.00;101972.22;5057951;28;20056;-71
2021/12/19 07:33:13;;;;;;;54.58;18.38;;;;;;;3.14;100.00;101977.31;5052143;28;20039;-71
2021/12/19 07:35:41;;;;;;;51.78;17.52;;;;;;;3.09;100.00;101975.19;5060507;28;20039;-71
2021/12/19 07:38:09;;;;;;;53.58;18.85;;;;;;;3.12;100.00;101979.41;5094167;28;20079;-71
2021/12/19 07:40:39;;;;;;;55.13;18.00;;;;;;;3.12;100.00;101974.78;5046253;28;20022;-71
2021/12/19 07:43:05;;;;;;;51.30;18.45;;;;;;;3.14;100.00;101982.78;5076757;28;20044;-71
2021/12/19 07:45:31;;;;;;;46.90;17.80;;;;;;;3.12;100.00;101985.75;5080115;28;20036;-71
2021/12/19 07:47:57;;;;;;;58.45;19.38;;;;;;;3.17;100.00;101987.03;5077593;28;20020;-71
2021/12/19 07:50:22;;;;;;;50.60;18.17;;;;;;;3.19;100.00;101979.44;5082000;28;20036;-71
2021/12/19 07:52:48;;;;;;;50.85;18.08;;;;;;;3.19;100.00;101984.91;5077888;28;20396;-71
2021/12/19 07:55:14;;;;;;;50.35;18.50;;;;;;;3.20;100.00;101989.34;5074021;28;20054;-71
2021/12/19 07:57:40;;;;;;;53.25;19.23;;;;;;;3.25;100.00;101995.06;5058895;28;20568;-71
2021/12/19 08:00:07;;;;;;;47.60;17.88;;;;;;;3.26;100.00;101991.25;5072900;28;20062;-71
2021/12/19 08:02:33;;;;;;;50.70;17.73;;;;;;;3.29;100.00;101991.69;5087021;28;20070;-70
2021/12/19 08:04:58;;;;;;;54.17;18.23;;;;;;;3.27;100.00;101991.06;5084438;28;20027;-71
2021/12/19 08:07:24;;;;;;;53.38;18.65;;;;;;;3.28;100.00;101987.25;5066335;28;20592;-70
2021/12/19 08:12:41;;;;;;;47.25;16.17;;;;;;;3.36;100.00;101987.03;5071256;28;20044;-70
2021/12/19 08:15:07;;;;;;;43.53;16.98;;;;;;;3.35;100.00;101985.38;5081767;28;20027;-70
2021/12/19 08:17:33;;;;;;;49.38;17.70;;;;;;;3.32;100.00;101983.03;5058118;28;20032;-70
2021/12/19 08:19:59;;;;;;;50.35;17.15;;;;;;;3.36;100.00;101989.78;5082694;28;20697;-70
2021/12/19 08:22:26;;;;;;;55.05;17.70;;;;;;;3.43;100.00;101991.72;5079693;28;20036;-71
2021/12/19 08:24:52;;;;;;;54.15;18.02;;;;;;;3.42;100.00;101984.50;5075915;28;20549;-71
2021/12/19 08:27:17;;;;;;;51.58;17.20;;;;;;;3.42;100.00;101976.28;5090060;28;20028;-72
2021/12/19 08:29:43;;;;;;;45.55;16.25;;;;;;;3.47;100.00;101982.81;5075295;28;20032;-71
2021/12/19 08:32:08;;;;;;;50.00;17.38;;;;;;;3.47;100.00;101974.59;5079631;28;20037;-71
2021/12/19 08:34:34;;;;;;;52.30;18.10;;;;;;;3.47;100.00;101980.06;5089106;28;20377;-72
2021/12/19 08:37:00;;;;;;;51.35;17.23;;;;;;;3.51;100.00;101984.13;5066908;28;20055;-72
2021/12/19 08:39:28;;;;;;;47.60;17.83;;;;;;;3.53;100.00;101987.47;5049348;28;20024;-72
2021/12/19 08:41:54;;;;;;;48.83;17.45;;;;;;;3.54;100.00;101983.69;5062447;28;20024;-71
2021/12/19 08:44:19;;;;;;;52.15;17.63;;;;;;;3.57;100.00;101990.66;5097318;28;20042;-72
2021/12/19 08:46:45;;;;;;;47.25;16.60;;;;;;;3.54;100.00;101983.69;5079221;28;20032;-72
2021/12/19 08:49:11;;;;;;;48.40;18.52;;;;;;;3.58;100.00;101989.59;5101568;28;20556;-72
2021/12/19 08:51:37;;;;;;;50.20;17.27;;;;;;;3.59;100.00;101985.78;5064167;28;20103;-72
2021/12/19 08:54:03;;;;;;;45.83;17.77;;;;;;;3.62;100.00;101973.53;5094452;28;20393;-72
2021/12/19 08:56:29;;;;;;;47.08;16.48;;;;;;;3.61;100.00;101988.31;5065077;28;20108;-72
2021/12/19 08:58:54;;;;;;;45.78;17.20;;;;;;;3.67;100.00;101981.97;5062070;28;20056;-71
2021/12/19 09:01:20;;;;;;;49.20;17.98;;;;;;;3.68;100.00;101995.53;5068513;28;20024;-72
2021/12/19 09:03:45;;;;;;;46.95;16.17;;;;;;;3.67;100.00;101984.72;5078376;28;20035;-72
2021/12/19 09:06:11;;;;;;;49.00;17.88;;;;;;;3.70;100.00;101984.28;5067528;28;20042;-72
2021/12/19 09:08:36;;;;;;;45.72;17.30;;;;;;;3.72;100.00;101991.28;5080108;28;20020;-72
2021/12/19 09:11:02;;;;;;;51.40;18.33;;;;;;;3.75;100.00;101990.00;5080382;28;20032;-72
2021/12/19 09:13:27;;;;;;;48.78;17.73;;;;;;;3.80;100.00;101991.06;5078197;28;20024;-72
2021/12/19 09:15:53;;;;;;;52.40;17.42;;;;;;;3.80;100.00;101999.31;5041453;28;20028;-72
2021/12/19 09:18:18;;;;;;;53.95;17.55;;;;;;;3.83;100.00;101998.03;5081275;28;20043;-71
2021/12/19 09:20:44;;;;;;;47.88;17.10;;;;;;;3.83;100.00;102002.69;5066878;28;20024;-72
2021/12/19 09:23:11;;;;;;;44.30;16.10;;;;;;;3.85;100.00;101995.09;5062631;28;20032;-69
2021/12/19 09:25:37;;;;;;;44.63;15.55;;;;;;;3.86;100.00;101991.28;5087713;28;20028;-69
2021/12/19 09:28:03;;;;;;;41.50;16.17;;;;;;;3.88;100.00;101998.25;5077903;28;20031;-73
2021/12/19 09:30:28;;;;;;;47.67;16.95;;;;;;;3.94;100.00;101993.78;5061194;28;20051;-72
2021/12/19 09:32:54;;;;;;;48.58;19.05;;;;;;;3.94;100.00;101994.63;5078391;28;20049;-72
2021/12/19 09:35:19;;;;;;;59.95;21.33;;;;;;;3.99;100.00;101994.00;5081890;28;20086;-71
2021/12/19 09:37:45;;;;;;;68.75;23.52;;;;;;;4.04;100.00;101999.72;5081687;28;20060;-71
2021/12/19 09:40:17;;;;;;;77.78;26.08;;;;;;;4.03;100.00;101981.50;5073723;28;20033;-72
2021/12/19 09:42:47;;;;;;;76.70;26.00;;;;;;;4.03;100.00;101981.50;5065002;28;20032;-71
2021/12/19 09:45:13;;;;;;;82.97;27.67;;;;;;;4.04;100.00;101974.97;5077593;28;20552;-72
2021/12/19 09:47:38;;;;;;;71.18;24.98;;;;;;;4.07;100.00;101981.91;5083403;28;20063;-71
2021/12/19 09:50:07;;;;;;;53.28;20.23;;;;;;;4.10;100.00;101976.84;5079802;28;20028;-71
2021/12/19 09:52:36;;;;;;;56.53;22.48;;;;;;;4.10;100.00;101981.50;5052095;28;20404;-72
2021/12/19 09:55:02;;;;;;;58.95;22.02;;;;;;;4.10;100.00;101973.25;5100380;28;20039;-72
2021/12/19 09:57:27;;;;;;;55.33;20.90;;;;;;;4.12;100.00;101973.88;5080328;28;20028;-71
2021/12/19 09:59:52;;;;;;;51.97;19.25;;;;;;;4.13;100.00;101987.41;5061700;28;20513;-71
2021/12/19 10:02:18;;;;;;;58.22;22.30;;;;;;;4.16;100.00;101984.22;5082977;28;20092;-72
2021/12/19 10:04:45;;;;;;;55.22;22.05;;;;;;;4.17;100.00;101987.81;5066452;28;20054;-72
2021/12/19 10:07:19;;;;;;;54.45;21.10;;;;;;;4.21;100.00;101983.59;5060486;28;20048;-72
2021/12/19 10:10:01;;;;;;;57.58;24.95;;;;;;;4.20;100.00;101977.22;5075367;28;20455;-71
2021/12/19 10:15:22;;;;;;;48.03;18.65;;;;;;;4.27;100.00;101976.38;5093351;28;20024;-72
2021/12/19 10:17:47;;;;;;;48.05;19.13;;;;;;;4.30;100.00;101970.44;5079294;28;20111;-72
2021/12/19 10:20:15;;;;;;;51.13;19.58;;;;;;;4.31;100.00;101972.13;5073416;28;20526;-72
2021/12/19 10:22:45;;;;;;;46.85;18.55;;;;;;;4.36;100.00;101975.06;5066535;28;20030;-72
2021/12/19 10:25:18;;;;;;;50.73;22.53;;;;;;;4.38;100.00;101978.47;5079552;28;20497;-71
2021/12/19 10:27:49;;;;;;;44.25;18.40;;;;;;;4.39;100.00;101974.63;5093567;28;20055;-72
2021/12/19 10:30:25;;;;;;;38.45;16.63;;;;;;;4.45;100.00;101974.59;5079122;28;20134;-75
2021/12/19 10:33:15;;;;;;;39.13;16.85;;;;;;;4.48;100.00;101978.81;5077857;28;20031;-73
2021/12/19 10:35:46;;;;;;;40.70;16.90;;;;;;;4.52;100.00;101968.25;5090729;28;20618;-73
2021/12/19 10:38:29;;;;;;;43.95;17.52;;;;;;;4.52;100.00;101966.34;5096696;28;20057;-73
2021/12/19 10:40:57;;;;;;;39.03;16.88;;;;;;;4.54;100.00;101966.97;5042314;28;20027;-73
2021/12/19 10:43:26;;;;;;;40.45;16.40;;;;;;;4.55;100.00;101970.56;5053068;28;20063;-73
2021/12/19 10:45:52;;;;;;;;;;;;;;;4.56;100.00;101964.81;5049525;28;20119;-73
2021/12/19 10:48:31;;;;;;;40.97;16.90;;;;;;;4.58;100.00;101970.97;5097878;28;19950;-73
2021/12/19 10:51:04;;;;;;;39.95;16.15;;;;;;;4.64;100.00;101958.22;5062486;28;20289;-73
2021/12/19 10:53:41;;;;;;;43.53;17.52;;;;;;;4.64;100.00;101953.56;5061878;28;20130;-73
2021/12/19 10:56:18;;;;;;;43.70;16.90;;;;;;;4.69;100.00;101953.75;5092136;28;20032;-73
2021/12/19 10:58:59;;;;;;;44.92;18.33;;;;;;;4.72;100.00;101952.47;5065354;28;20051;-74
2021/12/19 11:01:41;;;;;;;41.05;17.13;;;;;;;4.73;100.00;101945.91;5093692;28;20468;-71
2021/12/19 11:04:07;;;;;;;40.53;17.02;;;;;;;4.81;100.00;101947.56;5086001;28;20029;-70
2021/12/19 11:06:34;;;;;;;43.60;18.40;;;;;;;4.81;100.00;101944.81;5090779;28;20040;-70
2021/12/19 11:09:03;;;;;;;39.00;16.50;;;;;;;4.81;100.00;101929.13;5092251;28;20089;-73
2021/12/19 11:11:29;;;;;;;38.92;19.00;;;;;;;4.85;100.00;101932.31;5090319;28;20730;-73
2021/12/19 11:13:55;;;;;;;33.92;16.45;;;;;;;4.89;100.00;101922.53;5095885;28;20047;-72
2021/12/19 11:16:21;;;;;;;30.38;14.80;;;;;;;4.91;100.00;101928.66;5092965;28;20035;-72
2021/12/19 11:18:47;;;;;;;33.55;14.13;;;;;;;4.91;100.00;101923.16;5095361;28;20035;-72
2021/12/19 11:21:12;;;;;;;34.20;14.18;;;;;;;4.96;100.00;101923.34;5073854;28;20051;-72
2021/12/19 11:23:37;;;;;;;32.60;14.57;;;;;;;4.96;100.00;101915.06;5087130;28;20021;-72
2021/12/19 11:26:03;;;;;;;29.88;13.25;;;;;;;4.94;100.00;101906.19;5060073;28;20104;-72
2021/12/19 11:28:28;;;;;;;31.30;13.48;;;;;;;4.99;100.00;101913.78;5060517;28;20048;-79
2021/12/19 11:30:54;;;;;;;25.30;11.50;;;;;;;5.00;100.00;101901.69;5061733;28;20036;-79
2021/12/19 11:33:29;;;;;;;28.10;12.00;;;;;;;5.00;100.00;101888.78;5041681;28;20031;-79
2021/12/19 11:35:55;;;;;;;23.23;10.52;;;;;;;5.01;100.00;101881.34;5069226;28;20039;-80
2021/12/19 11:38:21;;;;;;;23.88;11.35;;;;;;;5.00;100.00;101876.91;5076284;28;20029;-81
2021/12/19 11:40:47;;;;;;;20.08;10.50;;;;;;;5.04;100.00;101872.63;5062290;28;20059;-80
2021/12/19 11:43:12;;;;;;;23.33;11.65;;;;;;;5.04;100.00;101879.00;5099824;28;20036;-79
2021/12/19 11:45:42;;;;;;;21.45;11.20;;;;;;;5.06;100.00;101870.50;5097082;28;20023;-81
2021/12/19 11:48:15;;;;;;;21.67;10.75;;;;;;;5.11;100.00;101871.53;5081597;28;20024;-80
2021/12/19 11:51:20;;;;;;;20.77;9.88;;;;;;;5.17;100.00;101866.19;5101218;28;20111;-84
2021/12/19 11:53:46;;;;;;;24.40;11.55;;;;;;;5.23;100.00;101863.38;5057998;28;20115;-85
2021/12/19 11:56:16;;;;;;;20.73;11.00;;;;;;;5.25;100.00;101855.72;5062816;28;20119;-80
2021/12/19 11:58:49;;;;;;;23.20;10.98;;;;;;;5.29;100.00;101848.72;5076274;28;20088;-80
2021/12/19 12:01:35;;;;;;;20.38;10.63;;;;;;;5.33;100.00;101849.09;5058415;28;20468;-80
2021/12/19 12:04:14;;;;;;;23.25;11.07;;;;;;;5.37;100.00;101834.63;5098183;28;20067;-80
2021/12/19 12:06:56;;;;;;;22.58;10.98;;;;;;;5.43;100.00;101835.63;5081538;28;20024;-79
2021/12/19 12:09:26;;;;;;;21.75;10.75;;;;;;;5.47;100.00;101827.75;5095362;28;20055;-79
2021/12/19 12:12:06;;;;;;;21.77;10.70;;;;;;;5.50;100.00;101822.63;5054191;28;20055;-80
2021/12/19 12:14:42;;;;;;;19.63;10.25;;;;;;;5.54;100.00;101821.13;5097660;28;20032;-79
2021/12/19 12:17:17;;;;;;;18.27;9.32;;;;;;;5.56;100.00;101821.72;5098798;28;20079;-79
2021/12/19 12:19:50;;;;;;;23.83;11.27;;;;;;;5.65;100.00;101816.72;5069949;28;20484;-79
2021/12/19 12:22:19;;;;;;;22.48;11.05;;;;;;;5.67;100.00;101816.53;5096236;28;20039;-79
2021/12/19 12:25:04;;;;;;;28.70;12.18;;;;;;;5.69;100.00;101819.91;5090797;28;20477;-79
2021/12/19 12:27:47;;;;;;;19.58;10.30;;;;;;;5.70;100.00;101814.13;5097298;28;20107;-80
2021/12/19 12:30:14;;;;;;;16.48;8.63;;;;;;;5.71;100.00;101821.34;5094132;28;20520;-80
2021/12/19 12:32:40;;;;;;;17.67;9.25;;;;;;;5.69;100.00;101809.72;5065360;28;20028;-80